createdAt,value
2023-05-16T00:00:05.197Z,53.41
2023-05-16T00:01:05.206Z,43.18
2023-05-16T00:02:05.202Z,49.15
2023-05-16T00:03:05.332Z,53.95
2023-05-16T00:04:05.229Z,53.31
2023-05-16T00:05:05.183Z,48.08
2023-05-16T00:06:06.029Z,49.41
2023-05-16T00:07:05.131Z,44.53
2023-05-16T00:08:05.132Z,37.21
2023-05-16T00:09:05.116Z,41.22
2023-05-16T00:10:05.120Z,44.15
2023-05-16T00:11:05.134Z,58.63
2023-05-16T00:12:05.094Z,42.41
2023-05-16T00:13:05.098Z,52.74
2023-05-16T00:14:05.094Z,58.16
2023-05-16T00:15:05.078Z,59.80
2023-05-16T00:16:05.108Z,47.89
2023-05-16T00:17:05.367Z,55.19
2023-05-16T00:18:05.085Z,51.09
2023-05-16T00:19:05.104Z,50.85
2023-05-16T00:20:05.033Z,50.28
2023-05-16T00:22:52.260Z,56.61
2023-05-16T00:23:52.234Z,46.20
2023-05-16T00:24:52.228Z,59.23
2023-05-16T00:25:52.220Z,39.36
2023-05-16T00:26:52.224Z,39.93
2023-05-16T00:27:52.201Z,49.89
2023-05-16T00:28:52.191Z,39.03
2023-05-16T00:29:52.184Z,40.57
2023-05-16T00:30:52.175Z,46.89
2023-05-16T00:31:52.206Z,46.65
2023-05-16T00:32:52.219Z,56.85
2023-05-16T00:33:52.166Z,49.47
2023-05-16T00:34:52.213Z,47.60
2023-05-16T00:35:52.145Z,51.62
2023-05-16T00:36:52.132Z,58.40
2023-05-16T00:37:52.129Z,42.57
2023-05-16T00:38:52.121Z,46.73
2023-05-16T00:39:53.210Z,51.42
2023-05-16T00:40:53.235Z,46.61
2023-05-16T00:41:53.184Z,46.42
2023-05-16T00:42:53.179Z,54.33
2023-05-16T00:43:53.161Z,46.95
2023-05-16T00:44:53.169Z,44.22
2023-05-16T00:45:53.231Z,50.32
2023-05-16T00:46:53.815Z,60.14
2023-05-16T00:47:53.165Z,44.51
2023-05-16T00:48:53.167Z,57.30
2023-05-16T00:49:53.133Z,50.08
2023-05-16T00:50:53.115Z,56.15
2023-05-16T00:51:53.128Z,59.81
2023-05-16T00:52:53.096Z,43.44
2023-05-16T00:53:53.099Z,52.87
2023-05-16T00:54:53.081Z,46.41
2023-05-16T00:55:53.076Z,56.65
2023-05-16T00:56:53.083Z,57.59
2023-05-16T00:57:53.077Z,44.93
2023-05-16T00:58:53.050Z,44.57
2023-05-16T00:59:53.030Z,50.90
2023-05-16T01:00:53.014Z,48.40
2023-05-16T01:01:53.153Z,51.86
2023-05-16T01:02:53.096Z,46.23
2023-05-16T01:03:53.272Z,55.71
2023-05-16T01:04:52.999Z,46.87
2023-05-16T01:05:53.003Z,53.58
2023-05-16T01:06:53.039Z,53.61
2023-05-16T01:07:52.973Z,53.48
2023-05-16T01:08:52.968Z,48.04
2023-05-16T01:09:52.950Z,48.24
2023-05-16T01:10:52.943Z,58.34
2023-05-16T01:11:52.946Z,50.20
2023-05-16T01:12:52.932Z,51.15
2023-05-16T01:13:52.914Z,55.13
2023-05-16T01:14:52.916Z,53.59
2023-05-16T01:15:52.918Z,52.09
2023-05-16T01:16:52.900Z,54.61
2023-05-16T01:17:53.054Z,50.32
2023-05-16T01:18:52.967Z,50.08
2023-05-16T01:19:52.892Z,59.73
2023-05-16T01:20:52.858Z,47.79
2023-05-16T01:21:52.849Z,48.56
2023-05-16T01:22:52.846Z,51.89
2023-05-16T01:23:52.860Z,52.12
2023-05-16T01:24:52.822Z,53.81
2023-05-16T01:25:52.805Z,48.58
2023-05-16T01:26:52.798Z,53.25
2023-05-16T01:27:52.802Z,61.21
2023-05-16T01:28:52.794Z,54.23
2023-05-16T01:29:52.774Z,53.39
2023-05-16T01:30:52.774Z,53.40
2023-05-16T01:31:52.858Z,56.74
2023-05-16T01:32:52.787Z,56.57
2023-05-16T01:33:52.933Z,56.73
2023-05-16T01:34:52.773Z,49.91
2023-05-16T01:35:52.728Z,49.26
2023-05-16T01:36:52.756Z,57.66
2023-05-16T01:37:52.737Z,55.14
2023-05-16T01:38:52.716Z,48.82
2023-05-16T01:39:52.689Z,43.65
2023-05-16T01:40:52.690Z,46.13
2023-05-16T01:41:52.676Z,49.67
2023-05-16T01:42:53.410Z,60.64
2023-05-16T01:43:52.655Z,56.05
2023-05-16T01:44:52.647Z,57.83
2023-05-16T01:45:52.643Z,46.63
2023-05-16T01:46:52.730Z,43.79
2023-05-16T01:47:52.720Z,42.16
2023-05-16T01:48:52.646Z,45.11
2023-05-16T01:49:52.641Z,61.31
2023-05-16T01:50:52.608Z,44.37
2023-05-16T01:51:52.612Z,40.04
2023-05-16T01:52:52.592Z,55.46
2023-05-16T01:53:52.606Z,45.84
2023-05-16T01:54:52.568Z,41.97
2023-05-16T01:55:52.579Z,41.83
2023-05-16T01:56:52.612Z,43.45
2023-05-16T01:57:52.554Z,49.38
2023-05-16T01:58:52.553Z,57.61
2023-05-16T01:59:52.534Z,58.05
2023-05-16T02:00:52.587Z,62.30
2023-05-16T02:01:52.514Z,51.75
2023-05-16T02:02:52.561Z,46.60
2023-05-16T02:03:52.542Z,51.05
2023-05-16T02:04:52.513Z,46.38
2023-05-16T02:05:52.482Z,55.29
2023-05-16T02:06:52.491Z,56.20
2023-05-16T02:07:52.477Z,43.16
2023-05-16T02:08:52.486Z,44.32
2023-05-16T02:09:52.454Z,53.80
2023-05-16T02:10:52.449Z,48.68
2023-05-16T02:11:52.431Z,54.23
2023-05-16T02:12:52.426Z,50.14
2023-05-16T02:13:52.443Z,57.92
2023-05-16T02:14:52.400Z,46.36
2023-05-16T02:15:52.401Z,52.63
2023-05-16T02:16:52.506Z,51.39
2023-05-16T02:17:52.412Z,53.53
2023-05-16T02:18:52.413Z,48.91
2023-05-16T02:19:52.369Z,53.43
2023-05-16T02:20:52.361Z,49.93
2023-05-16T02:21:52.405Z,44.42
2023-05-16T02:22:52.385Z,52.62
2023-05-16T02:23:52.366Z,51.56
2023-05-16T02:24:52.341Z,50.43
2023-05-16T02:25:52.331Z,55.21
2023-05-16T02:26:52.332Z,50.49
2023-05-16T02:27:52.326Z,53.41
2023-05-16T02:28:52.304Z,43.31
2023-05-16T02:29:52.286Z,53.71
2023-05-16T02:30:52.328Z,55.88
2023-05-16T02:31:52.286Z,56.96
2023-05-16T02:32:52.304Z,57.91
2023-05-16T02:33:52.256Z,53.34
2023-05-16T02:34:52.258Z,42.50
2023-05-16T02:35:52.802Z,46.89
2023-05-16T02:36:52.230Z,54.30
2023-05-16T02:37:52.266Z,53.06
2023-05-16T02:38:52.236Z,51.60
2023-05-16T02:39:52.214Z,56.10
2023-05-16T02:40:52.207Z,57.06
2023-05-16T02:41:52.183Z,55.77
2023-05-16T02:42:52.195Z,60.52
2023-05-16T02:43:52.176Z,61.94
2023-05-16T02:44:52.180Z,59.13
2023-05-16T02:45:52.198Z,57.32
2023-05-16T02:46:52.222Z,56.88
2023-05-16T02:47:52.192Z,58.59
2023-05-16T02:48:52.161Z,53.40
2023-05-16T02:49:52.151Z,60.42
2023-05-16T02:50:52.134Z,52.78
2023-05-16T02:51:52.114Z,60.20
2023-05-16T02:52:52.099Z,54.15
2023-05-16T02:53:52.081Z,55.42
2023-05-16T02:55:00.244Z,59.35
2023-05-16T02:55:54.105Z,60.62
2023-05-16T02:56:52.079Z,55.60
2023-05-16T02:57:52.068Z,55.38
2023-05-16T02:58:52.060Z,59.24
2023-05-16T02:59:52.047Z,58.46
2023-05-16T03:00:52.048Z,58.72
2023-05-16T03:01:52.083Z,56.66
2023-05-16T03:02:52.144Z,57.21
2023-05-16T03:03:52.200Z,63.35
2023-05-16T03:04:52.006Z,64.29
2023-05-16T03:05:51.997Z,62.21
2023-05-16T03:06:52.001Z,55.72
2023-05-16T03:07:51.983Z,57.86
2023-05-16T03:08:51.983Z,60.01
2023-05-16T03:09:51.981Z,61.20
2023-05-16T03:10:51.963Z,60.81
2023-05-16T03:11:51.944Z,56.99
2023-05-16T03:12:51.943Z,58.24
2023-05-16T03:13:51.932Z,54.07
2023-05-16T03:14:51.923Z,61.84
2023-05-16T03:15:52.001Z,56.51
2023-05-16T03:16:51.898Z,56.25
2023-05-16T03:17:51.923Z,58.40
2023-05-16T03:18:51.933Z,58.86
2023-05-16T03:19:51.877Z,62.91
2023-05-16T03:20:51.922Z,53.29
2023-05-16T03:21:51.870Z,58.85
2023-05-16T03:22:51.860Z,63.68
2023-05-16T03:23:51.838Z,57.61
2023-05-16T03:24:51.901Z,59.66
2023-05-16T03:25:51.841Z,60.74
2023-05-16T03:26:51.833Z,60.03
2023-05-16T03:27:51.821Z,58.82
2023-05-16T03:28:51.838Z,62.92
2023-05-16T03:29:51.801Z,61.72
2023-05-16T03:30:51.780Z,59.50
2023-05-16T03:31:51.806Z,61.63
2023-05-16T03:32:51.802Z,59.70
2023-05-16T03:33:52.357Z,60.17
2023-05-16T03:34:51.822Z,62.02
2023-05-16T03:35:52.440Z,64.40
2023-05-16T03:36:51.761Z,59.50
2023-05-16T03:37:51.724Z,63.53
2023-05-16T03:38:51.729Z,64.70
2023-05-16T03:39:51.720Z,62.11
2023-05-16T03:40:51.707Z,60.59
2023-05-16T03:41:51.719Z,56.07
2023-05-16T03:42:51.719Z,59.62
2023-05-16T03:43:51.684Z,61.85
2023-05-16T03:44:51.708Z,56.10
2023-05-16T03:45:51.722Z,59.40
2023-05-16T03:46:51.700Z,60.08
2023-05-16T03:47:51.685Z,62.15
2023-05-16T03:48:51.676Z,61.85
2023-05-16T03:49:51.641Z,63.01
2023-05-16T03:50:51.654Z,64.44
2023-05-16T03:51:52.648Z,60.21
2023-05-16T03:52:51.613Z,61.38
2023-05-16T03:53:51.683Z,62.13
2023-05-16T03:54:52.437Z,59.58
2023-05-16T03:55:51.596Z,63.56
2023-05-16T03:56:51.610Z,61.13
2023-05-16T03:57:51.569Z,62.08
2023-05-16T03:58:51.585Z,63.20
2023-05-16T03:59:51.568Z,62.45
2023-05-16T04:00:51.568Z,65.41
2023-05-16T04:01:51.578Z,62.90
2023-05-16T04:02:51.681Z,63.87
2023-05-16T04:03:51.529Z,60.06
2023-05-16T04:04:52.359Z,61.31
2023-05-16T04:05:51.555Z,56.34
2023-05-16T04:06:51.495Z,60.62
2023-05-16T04:07:51.505Z,62.84
2023-05-16T04:08:51.494Z,59.79
2023-05-16T04:09:51.473Z,63.19
2023-05-16T04:10:51.452Z,63.97
2023-05-16T04:11:52.480Z,63.80
2023-05-16T04:12:51.464Z,64.75
2023-05-16T04:13:51.505Z,62.26
2023-05-16T04:14:51.466Z,60.50
2023-05-16T04:15:51.430Z,58.47
2023-05-16T04:16:51.542Z,62.71
2023-05-16T04:17:52.021Z,61.36
2023-05-16T04:18:51.437Z,65.17
2023-05-16T04:19:52.379Z,62.64
2023-05-16T04:20:51.420Z,62.92
2023-05-16T04:21:51.406Z,65.27
2023-05-16T04:22:51.370Z,64.73
2023-05-16T04:23:51.369Z,60.66
2023-05-16T04:24:51.355Z,60.02
2023-05-16T04:25:51.343Z,62.18
2023-05-16T04:26:51.347Z,66.42
2023-05-16T04:27:51.345Z,62.64
2023-05-16T04:28:51.359Z,63.09
2023-05-16T04:29:51.312Z,61.70
2023-05-16T04:30:51.319Z,63.26
2023-05-16T04:31:51.379Z,63.62
2023-05-16T04:32:51.366Z,65.10
2023-05-16T04:33:51.299Z,62.29
2023-05-16T04:34:51.264Z,64.62
2023-05-16T04:35:51.272Z,64.59
2023-05-16T04:36:51.258Z,67.01
2023-05-16T04:37:51.339Z,65.15
2023-05-16T04:38:51.242Z,64.84
2023-05-16T04:39:51.240Z,63.35
2023-05-16T04:40:51.221Z,65.07
2023-05-16T04:41:51.210Z,62.72
2023-05-16T04:42:51.219Z,63.17
2023-05-16T04:43:51.189Z,67.13
2023-05-16T04:44:51.201Z,63.13
2023-05-16T04:45:51.274Z,60.88
2023-05-16T04:46:51.184Z,67.25
2023-05-16T04:47:51.213Z,64.55
2023-05-16T04:48:51.181Z,66.27
2023-05-16T04:49:51.157Z,68.40
2023-05-16T04:50:51.151Z,66.39
2023-05-16T04:51:51.150Z,64.41
2023-05-16T04:52:51.138Z,64.68
2023-05-16T04:53:51.113Z,67.69
2023-05-16T04:54:51.120Z,64.20
2023-05-16T04:55:51.121Z,64.32
2023-05-16T04:56:51.119Z,65.21
2023-05-16T04:57:51.082Z,63.74
2023-05-16T04:58:51.085Z,62.43
2023-05-16T04:59:51.081Z,64.60
2023-05-16T05:00:51.056Z,65.16
2023-05-16T05:01:51.113Z,63.51
2023-05-16T05:02:51.117Z,66.30
2023-05-16T05:03:51.029Z,68.56
2023-05-16T05:04:51.105Z,68.10
2023-05-16T05:05:51.044Z,64.85
2023-05-16T05:06:51.013Z,63.47
2023-05-16T05:07:51.005Z,63.44
2023-05-16T05:08:50.999Z,62.94
2023-05-16T05:09:50.996Z,65.36
2023-05-16T05:10:51.963Z,66.45
2023-05-16T05:11:50.988Z,66.12
2023-05-16T05:12:50.967Z,64.45
2023-05-16T05:13:52.879Z,65.00
2023-05-16T05:14:51.949Z,64.08
2023-05-16T05:15:50.934Z,65.18
2023-05-16T05:16:51.021Z,66.14
2023-05-16T05:17:51.050Z,65.48
2023-05-16T05:18:51.097Z,65.13
2023-05-16T05:19:51.956Z,71.55
2023-05-16T05:20:50.945Z,68.79
2023-05-16T05:21:50.896Z,69.05
2023-05-16T05:22:50.871Z,64.51
2023-05-16T05:23:50.875Z,65.45
2023-05-16T05:24:50.853Z,71.68
2023-05-16T05:25:50.848Z,72.23
2023-05-16T05:26:50.846Z,65.02
2023-05-16T05:27:50.830Z,67.04
2023-05-16T05:29:01.204Z,67.02
2023-05-16T05:29:52.837Z,65.67
2023-05-16T05:30:50.814Z,66.58
2023-05-16T05:31:50.907Z,65.54
2023-05-16T05:32:51.442Z,67.33
2023-05-16T05:33:50.802Z,67.95
2023-05-16T05:34:50.775Z,66.03
2023-05-16T05:35:50.760Z,64.57
2023-05-16T05:36:52.485Z,65.79
2023-05-16T05:37:50.754Z,68.42
2023-05-16T05:38:50.969Z,64.13
2023-05-16T05:39:50.733Z,65.30
2023-05-16T05:40:51.478Z,67.58
2023-05-16T05:41:50.742Z,65.43
2023-05-16T05:42:50.705Z,66.91
2023-05-16T05:43:50.705Z,65.18
2023-05-16T05:44:50.716Z,65.70
2023-05-16T05:45:50.715Z,67.17
2023-05-16T05:46:50.715Z,64.60
2023-05-16T05:47:50.794Z,65.74
2023-05-16T05:48:50.659Z,66.38
2023-05-16T05:49:50.657Z,65.43
2023-05-16T05:50:50.660Z,66.48
2023-05-16T05:51:50.648Z,68.05
2023-05-16T05:52:50.648Z,67.78
2023-05-16T05:53:51.466Z,66.73
2023-05-16T05:54:51.343Z,66.06
2023-05-16T05:55:50.609Z,66.78
2023-05-16T05:56:50.596Z,67.39
2023-05-16T05:57:50.596Z,66.31
2023-05-16T05:58:50.568Z,66.70
2023-05-16T05:59:50.583Z,67.65
2023-05-16T06:00:50.556Z,67.94
2023-05-16T06:01:50.594Z,66.37
2023-05-16T06:02:50.733Z,68.36
2023-05-16T06:03:50.583Z,68.23
2023-05-16T06:04:50.529Z,66.76
2023-05-16T06:05:50.585Z,65.45
2023-05-16T06:06:50.526Z,65.76
2023-05-16T06:07:50.501Z,64.54
2023-05-16T06:08:50.512Z,68.24
2023-05-16T06:09:50.537Z,65.12
2023-05-16T06:10:51.485Z,65.25
2023-05-16T06:11:51.483Z,64.00
2023-05-16T06:12:50.485Z,63.74
2023-05-16T06:13:50.488Z,65.11
2023-05-16T06:14:50.450Z,65.07
2023-05-16T21:22:00.463Z,56.67
2023-05-16T21:23:00.436Z,59.61
2023-05-16T21:24:00.441Z,58.13
2023-05-16T21:25:00.418Z,53.59
2023-05-16T21:26:00.416Z,48.48
2023-05-16T21:27:00.424Z,57.51
2023-05-16T21:28:00.424Z,54.40
2023-05-16T21:29:00.380Z,59.02
2023-05-16T21:30:00.375Z,58.55
2023-05-16T21:31:00.375Z,53.94
2023-05-16T21:32:00.365Z,56.42
2023-05-16T21:33:00.382Z,58.86
2023-05-16T21:34:00.432Z,55.73
2023-05-16T21:35:00.358Z,58.25
2023-05-16T21:36:00.336Z,52.17
2023-05-16T21:37:00.421Z,53.45
2023-05-16T21:38:00.309Z,54.74
2023-05-16T21:39:00.314Z,53.68
2023-05-16T21:40:00.290Z,60.39
2023-05-16T21:41:00.295Z,54.98
2023-05-16T21:42:00.296Z,49.86
2023-05-16T21:43:00.270Z,61.87
2023-05-16T21:44:00.280Z,50.54
2023-05-16T21:45:00.257Z,55.60
2023-05-16T21:46:00.268Z,46.17
2023-05-16T21:47:00.256Z,52.90
2023-05-16T21:48:00.333Z,53.21
2023-05-16T21:49:00.292Z,53.68
2023-05-16T21:50:00.216Z,54.48
2023-05-16T21:51:00.235Z,56.44
2023-05-16T21:52:00.204Z,49.86
2023-05-16T21:53:00.647Z,55.21
2023-05-16T21:54:00.191Z,50.81
2023-05-16T21:55:00.195Z,45.74
2023-05-16T21:56:00.177Z,59.20
2023-05-16T21:57:00.166Z,49.86
2023-05-16T21:58:00.160Z,53.83
2023-05-16T21:59:01.260Z,60.69
2023-05-16T22:00:02.260Z,59.01
2023-05-16T22:01:01.270Z,53.47
2023-05-16T22:02:01.216Z,52.61
2023-05-16T22:03:01.294Z,57.94
2023-05-16T22:04:01.266Z,58.37
2023-05-16T22:05:01.283Z,49.82
2023-05-16T22:06:01.198Z,55.87
2023-05-16T22:07:01.182Z,56.82
2023-05-16T22:08:01.208Z,60.52
2023-05-16T22:09:02.107Z,52.87
2023-05-16T22:10:03.022Z,50.31
2023-05-16T22:11:01.148Z,59.41
2023-05-16T22:12:01.137Z,53.46
2023-05-16T22:13:01.137Z,57.40
2023-05-16T22:14:01.187Z,55.24
2023-05-16T22:15:01.123Z,55.74
2023-05-16T22:16:04.546Z,55.72
2023-05-16T22:17:02.103Z,57.41
2023-05-16T22:18:01.204Z,57.34
2023-05-16T22:19:01.201Z,55.11
2023-05-16T22:20:01.111Z,56.06
2023-05-16T22:21:01.079Z,47.15
2023-05-16T22:22:01.057Z,54.49
2023-05-16T22:23:01.073Z,57.57
2023-05-16T22:24:01.052Z,59.81
2023-05-16T22:25:01.116Z,58.82
2023-05-16T22:26:01.052Z,59.94
2023-05-16T22:27:01.027Z,46.24
2023-05-16T22:28:01.050Z,41.96
2023-05-16T22:29:01.006Z,53.00
2023-05-16T22:30:00.994Z,47.75
2023-05-16T22:31:00.974Z,44.85
2023-05-16T22:32:00.995Z,50.09
2023-05-16T22:33:01.722Z,52.66
2023-05-16T22:34:00.978Z,43.95
2023-05-16T22:35:00.956Z,57.49
2023-05-16T22:36:00.944Z,51.75
2023-05-16T22:37:00.927Z,41.89
2023-05-16T22:38:00.944Z,59.63
2023-05-16T22:39:00.957Z,53.89
2023-05-16T22:40:00.907Z,57.92
2023-05-16T22:41:00.901Z,46.88
2023-05-16T22:42:00.892Z,49.60
2023-05-16T22:43:00.898Z,50.45
2023-05-16T22:44:00.920Z,48.24
2023-05-16T22:45:00.931Z,60.13
2023-05-16T22:46:03.041Z,49.73
2023-05-16T22:47:01.855Z,58.55
2023-05-16T22:48:00.899Z,55.36
2023-05-16T22:49:00.941Z,47.39
2023-05-16T22:50:00.870Z,59.65
2023-05-16T22:51:00.844Z,59.38
2023-05-16T22:52:00.882Z,59.30
2023-05-16T22:53:00.843Z,55.99
2023-05-16T22:54:00.794Z,52.77
2023-05-16T22:55:00.781Z,50.55
2023-05-16T22:56:00.783Z,60.09
2023-05-16T22:57:00.804Z,54.03
2023-05-16T22:58:00.815Z,48.37
2023-05-16T22:59:00.745Z,62.07
2023-05-16T23:00:00.769Z,60.05
2023-05-16T23:01:00.741Z,56.36
2023-05-16T23:02:00.737Z,46.49
2023-05-16T23:03:00.833Z,48.60
2023-05-16T23:04:00.817Z,54.04
2023-05-16T23:05:00.789Z,50.63
2023-05-16T23:06:00.719Z,51.74
2023-05-16T23:07:00.696Z,43.47
2023-05-16T23:08:00.689Z,58.61
2023-05-16T23:09:00.706Z,57.80
2023-05-16T23:10:00.677Z,50.89
2023-05-16T23:11:00.686Z,50.18
2023-05-16T23:12:00.692Z,56.69
2023-05-16T23:13:00.841Z,52.06
2023-05-16T23:14:00.668Z,40.71
2023-05-16T23:15:00.637Z,48.10
2023-05-16T23:16:00.627Z,60.12
2023-05-16T23:17:00.637Z,51.13
2023-05-16T23:18:00.690Z,55.27
2023-05-16T23:19:00.697Z,58.49
2023-05-16T23:20:00.783Z,44.09
2023-05-16T23:21:00.634Z,61.08
2023-05-16T23:22:00.581Z,47.11
2023-05-16T23:23:00.560Z,53.96
2023-05-16T23:24:05.112Z,52.53
2023-05-16T23:25:00.598Z,57.41
2023-05-16T23:26:00.558Z,60.69
2023-05-16T23:27:00.554Z,50.97
2023-05-16T23:28:00.539Z,48.67
2023-05-16T23:29:00.603Z,57.48
2023-05-16T23:30:00.503Z,46.14
2023-05-16T23:31:00.524Z,57.91
2023-05-16T23:32:00.493Z,48.51
2023-05-16T23:33:00.608Z,52.58
2023-05-16T23:34:00.671Z,42.57
2023-05-16T23:35:00.485Z,56.10
2023-05-16T23:36:00.475Z,51.35
2023-05-16T23:37:00.456Z,53.12
2023-05-16T23:38:00.484Z,54.24
2023-05-16T23:39:00.445Z,55.14
2023-05-16T23:40:00.446Z,47.09
2023-05-16T23:41:01.111Z,53.86
2023-05-16T23:42:00.454Z,53.64
2023-05-16T23:43:00.486Z,41.15
2023-05-16T23:44:00.393Z,51.52
2023-05-16T23:45:00.481Z,52.21
2023-05-16T23:46:00.436Z,46.90
2023-05-16T23:47:00.412Z,61.37
2023-05-16T23:48:00.437Z,57.26
2023-05-16T23:49:00.436Z,45.40
2023-05-16T23:50:00.355Z,62.79
2023-05-16T23:51:00.371Z,48.79
2023-05-16T23:52:01.137Z,55.10
2023-05-16T23:53:00.355Z,57.31
2023-05-16T23:54:00.323Z,52.69
2023-05-16T23:55:00.426Z,59.47
2023-05-16T23:56:00.318Z,63.02
2023-05-16T23:57:00.382Z,53.05
2023-05-16T23:58:00.284Z,53.77
2023-05-16T23:59:00.290Z,62.12
